Time;durP1;ratioP1;P1;durP2;ratioP2;P2;SDS_P1;SDS_P2;PMS_P1;PMS_P2;Temp;Humidity;BMP_temperature;BMP_pressure;BME280_temperature;BME280_humidity;BME280_pressure;Samples;Min_cycle;Max_cycle;Signal;HPM_P1;HPM_P2
2022/08/30 00:02:54;;;;;;;30.88;19.45;;;;;;;20.18;100.00;94871.38;5064071;28;20350;-82
2022/08/30 00:05:21;;;;;;;32.55;21.13;;;;;;;20.11;100.00;94881.44;5063986;28;20221;-80
2022/08/30 00:07:49;;;;;;;33.85;21.75;;;;;;;20.10;100.00;94875.38;5065970;28;20681;-81
2022/08/30 00:10:16;;;;;;;29.92;20.58;;;;;;;20.16;100.00;94878.78;5066110;28;20209;-81
2022/08/30 00:12:43;;;;;;;28.58;20.33;;;;;;;20.11;100.00;94876.97;5064071;28;20566;-81
2022/08/30 00:15:13;;;;;;;27.13;19.65;;;;;;;20.08;100.00;94871.44;5063897;28;20237;-80
2022/08/30 00:17:40;;;;;;;31.45;20.48;;;;;;;20.11;100.00;94866.41;5061708;28;20221;-80
2022/08/30 00:20:11;;;;;;;29.55;20.85;;;;;;;20.12;100.00;94873.25;5064166;28;20582;-82
2022/08/30 00:22:38;;;;;;;25.67;20.38;;;;;;;20.10;100.00;94871.94;5062588;28;20687;-82
2022/08/30 00:25:06;;;;;;;24.98;20.58;;;;;;;20.09;100.00;94868.50;5065191;28;20224;-81
2022/08/30 00:27:33;;;;;;;24.98;19.60;;;;;;;20.07;100.00;94867.19;5065022;28;20201;-81
2022/08/30 00:30:01;;;;;;;29.33;19.42;;;;;;;20.01;100.00;94861.16;5061813;28;20209;-81
2022/08/30 00:32:28;;;;;;;24.20;18.52;;;;;;;19.98;100.00;94871.47;5061231;28;20217;-80
2022/08/30 00:34:55;;;;;;;34.25;17.83;;;;;;;19.95;100.00;94862.25;5064258;28;20213;-81
2022/08/30 00:37:24;;;;;;;23.05;16.60;;;;;;;19.91;100.00;94865.69;5064997;28;20209;-82
2022/08/30 00:39:51;;;;;;;22.65;16.75;;;;;;;19.88;100.00;94868.88;5066467;28;20276;-81
2022/08/30 00:42:19;;;;;;;27.80;19.25;;;;;;;19.84;100.00;94871.25;5064621;28;20208;-81
2022/08/30 00:44:46;;;;;;;29.88;18.38;;;;;;;19.86;100.00;94877.06;5063487;28;20226;-81
2022/08/30 00:47:14;;;;;;;27.20;17.98;;;;;;;19.83;100.00;94877.59;5063444;28;20213;-81
2022/08/30 00:49:44;;;;;;;26.67;16.70;;;;;;;19.79;100.00;94871.28;5061849;28;20589;-80
2022/08/30 00:52:12;;;;;;;27.83;16.65;;;;;;;19.74;100.00;94869.44;5065535;28;20213;-84
2022/08/30 00:54:44;;;;;;;22.08;16.45;;;;;;;19.68;100.00;94867.88;5063427;28;20255;-84
2022/08/30 00:57:13;;;;;;;26.52;16.98;;;;;;;19.64;100.00;94863.41;5063375;28;20205;-84
2022/08/30 00:59:42;;;;;;;28.30;18.85;;;;;;;19.65;100.00;94876.31;5063851;28;20609;-84
2022/08/30 01:02:22;;;;;;;25.02;17.95;;;;;;;19.69;100.00;94884.50;5063704;28;20208;-84
2022/08/30 01:04:51;;;;;;;27.92;19.23;;;;;;;19.69;100.00;94876.59;5066600;28;20254;-84
2022/08/30 01:07:18;;;;;;;28.63;17.98;;;;;;;19.69;100.00;94880.00;5069772;28;20206;-84
2022/08/30 01:09:48;;;;;;;23.75;17.42;;;;;;;19.66;100.00;94877.91;5069399;28;20266;-84
2022/08/30 01:12:15;;;;;;;24.52;17.50;;;;;;;19.68;100.00;94873.16;5067040;28;20598;-85
2022/08/30 01:14:42;;;;;;;24.10;17.00;;;;;;;19.72;100.00;94874.19;5067661;28;20236;-86
2022/08/30 01:17:09;;;;;;;25.95;16.77;;;;;;;19.67;100.00;94858.41;5070073;28;20280;-85
2022/08/30 01:19:41;;;;;;;24.20;16.73;;;;;;;19.67;100.00;94868.94;5070156;28;20664;-83
2022/08/30 01:22:18;;;;;;;21.67;16.27;;;;;;;19.56;100.00;94866.63;5068332;28;20206;-84
2022/08/30 01:24:47;;;;;;;21.40;16.23;;;;;;;19.53;100.00;94860.03;5069086;28;20213;-84
2022/08/30 01:27:15;;;;;;;30.27;17.67;;;;;;;19.56;100.00;94861.34;5069600;28;20201;-84
2022/08/30 01:29:43;;;;;;;26.58;18.85;;;;;;;19.59;100.00;94869.50;5069232;28;20804;-83
2022/08/30 01:32:17;;;;;;;23.65;17.45;;;;;;;19.55;100.00;94868.47;5066080;28;20206;-83
2022/08/30 01:34:44;;;;;;;25.58;17.55;;;;;;;19.56;100.00;94871.88;5065843;28;20594;-83
2022/08/30 01:37:11;;;;;;;23.95;17.73;;;;;;;19.58;100.00;94875.03;5067650;28;20681;-83
2022/08/30 01:39:38;;;;;;;22.77;16.50;;;;;;;19.64;100.00;94876.59;5068211;28;21625;-83
2022/08/30 01:42:06;;;;;;;24.17;16.60;;;;;;;19.60;100.00;94878.19;5068175;28;20209;-83
2022/08/30 01:44:33;;;;;;;24.63;16.02;;;;;;;19.65;100.00;94870.28;5067915;28;20289;-84
2022/08/30 01:47:00;;;;;;;21.10;16.42;;;;;;;19.64;100.00;94866.06;5067907;28;20205;-82
2022/08/30 01:49:27;;;;;;;25.95;16.05;;;;;;;19.60;100.00;94862.38;5068449;28;20656;-84
2022/08/30 01:51:54;;;;;;;25.58;16.08;;;;;;;19.61;100.00;94861.31;5069074;28;20221;-84
2022/08/30 01:54:21;;;;;;;20.08;15.82;;;;;;;19.60;100.00;94863.16;5069222;28;20212;-83
2022/08/30 01:56:48;;;;;;;20.90;16.08;;;;;;;19.59;100.00;94844.97;5066978;28;20208;-82
2022/08/30 01:59:17;;;;;;;21.73;15.57;;;;;;;19.60;100.00;94852.59;5066531;28;20204;-81
2022/08/30 02:01:44;;;;;;;22.35;15.57;;;;;;;19.58;100.00;94848.66;5067663;28;20212;-82
2022/08/30 02:04:13;;;;;;;21.13;15.70;;;;;;;19.50;100.00;94844.75;5067063;28;20201;-80
2022/08/30 02:06:40;;;;;;;23.17;15.93;;;;;;;19.44;100.00;94850.28;5062782;28;20296;-80
2022/08/30 02:09:07;;;;;;;30.48;17.17;;;;;;;19.45;100.00;94852.66;5066050;28;20208;-81
2022/08/30 02:11:34;;;;;;;22.30;16.65;;;;;;;19.40;100.00;94854.50;5066099;28;20659;-80
2022/08/30 02:14:01;;;;;;;26.42;16.17;;;;;;;19.32;100.00;94853.19;5064367;28;20201;-80
2022/08/30 02:16:29;;;;;;;25.65;16.73;;;;;;;19.28;100.00;94846.84;5064246;28;20596;-80
2022/08/30 02:18:57;;;;;;;25.40;16.55;;;;;;;19.20;100.00;94844.78;5066508;28;20216;-81
2022/08/30 02:21:24;;;;;;;26.33;16.52;;;;;;;19.17;100.00;94846.09;5067200;28;20248;-81
2022/08/30 02:23:50;;;;;;;24.35;17.70;;;;;;;19.19;100.00;94841.34;5067222;28;20208;-81
2022/08/30 02:26:18;;;;;;;23.67;16.63;;;;;;;19.22;100.00;94845.28;5066334;28;20232;-82
2022/08/30 02:28:45;;;;;;;20.67;16.95;;;;;;;19.24;100.00;94846.63;5064781;28;20224;-81
2022/08/30 02:31:12;;;;;;;24.27;16.35;;;;;;;19.27;100.00;94846.09;5065413;28;20208;-81
2022/08/30 02:33:41;;;;;;;24.65;16.30;;;;;;;19.23;100.00;94847.69;5063098;28;20209;-80
2022/08/30 02:36:09;;;;;;;25.17;16.35;;;;;;;19.22;100.00;94842.66;5063844;28;20654;-80
2022/08/30 02:38:36;;;;;;;27.27;16.52;;;;;;;19.23;100.00;94852.94;5064602;28;20198;-79
2022/08/30 02:41:03;;;;;;;28.85;17.02;;;;;;;19.23;100.00;94857.41;5063471;28;20214;-81
2022/08/30 02:43:30;;;;;;;24.90;16.30;;;;;;;19.23;100.00;94852.16;5062869;28;20220;-81
2022/08/30 02:45:57;;;;;;;30.88;17.10;;;;;;;19.20;100.00;94850.03;5063770;28;20221;-81
2022/08/30 02:48:24;;;;;;;23.23;16.48;;;;;;;19.16;100.00;94847.16;5063886;28;20220;-81
2022/08/30 02:50:53;;;;;;;23.05;16.02;;;;;;;19.13;100.00;94841.63;5063405;28;21181;-81
2022/08/30 02:53:21;;;;;;;29.02;15.85;;;;;;;19.12;100.00;94846.13;5063655;28;20665;-81
2022/08/30 02:55:48;;;;;;;21.77;15.10;;;;;;;19.07;100.00;94842.69;5064871;28;20737;-80
2022/08/30 02:58:15;;;;;;;26.15;16.73;;;;;;;19.04;100.00;94840.59;5065493;28;20213;-80
2022/08/30 03:00:42;;;;;;;28.67;15.77;;;;;;;19.09;100.00;94841.38;5065429;28;20205;-80
2022/08/30 03:03:09;;;;;;;27.52;16.38;;;;;;;19.10;100.00;94842.97;5065502;28;20795;-81
2022/08/30 03:05:36;;;;;;;23.17;15.63;;;;;;;19.17;100.00;94843.47;5065615;28;20228;-81
2022/08/30 03:08:04;;;;;;;21.52;13.90;;;;;;;19.08;100.00;94852.16;5064635;28;20209;-80
2022/08/30 03:10:31;;;;;;;22.75;14.65;;;;;;;18.96;100.00;94839.25;5063900;28;20214;-80
2022/08/30 03:12:58;;;;;;;23.27;14.93;;;;;;;18.95;100.00;94837.72;5064235;28;20205;-81
2022/08/30 03:15:25;;;;;;;20.92;14.00;;;;;;;19.00;100.00;94844.81;5064511;28;20237;-80
2022/08/30 03:17:53;;;;;;;19.65;14.15;;;;;;;19.01;100.00;94851.66;5063763;28;20217;-80
2022/08/30 03:20:21;;;;;;;19.60;13.30;;;;;;;19.01;100.00;94852.47;5064800;28;20885;-81
2022/08/30 03:22:48;;;;;;;21.75;14.45;;;;;;;18.97;100.00;94854.03;5065094;28;20217;-80
2022/08/30 03:25:17;;;;;;;18.73;14.00;;;;;;;18.87;100.00;94850.63;5065950;28;20236;-81
2022/08/30 03:27:43;;;;;;;19.25;14.10;;;;;;;18.84;100.00;94857.22;5065001;28;20198;-81
2022/08/30 03:30:11;;;;;;;18.70;14.18;;;;;;;18.79;100.00;94861.69;5063683;28;20209;-81
2022/08/30 03:32:39;;;;;;;20.55;14.63;;;;;;;18.85;100.00;94852.72;5066093;28;20579;-82
2022/08/30 03:35:07;;;;;;;19.80;13.98;;;;;;;18.90;100.00;94853.53;5064152;28;20216;-78
2022/08/30 03:37:35;;;;;;;19.52;14.70;;;;;;;18.78;100.00;94849.56;5064426;28;20204;-79
2022/08/30 03:40:03;;;;;;;21.65;15.55;;;;;;;18.77;100.00;94850.59;5064283;28;20349;-79
2022/08/30 03:42:31;;;;;;;21.52;14.75;;;;;;;18.75;100.00;94853.53;5064016;28;20202;-79
2022/08/30 03:45:11;;;;;;;;;;;;;;;;;;;;;
2022/08/30 03:47:38;;;;;;;20.15;16.25;;;;;;;18.75;100.00;94858.00;5059720;28;20213;-79
2022/08/30 03:50:06;;;;;;;19.42;15.23;;;;;;;18.68;100.00;94853.78;5061527;28;20213;-80
2022/08/30 03:52:34;;;;;;;24.23;16.00;;;;;;;18.58;100.00;94860.88;5061346;28;20914;-79
2022/08/30 03:55:01;;;;;;;21.23;15.93;;;;;;;18.59;100.00;94862.44;5061997;28;20826;-80
2022/08/30 03:57:28;;;;;;;20.02;16.48;;;;;;;18.52;100.00;94860.09;5062362;28;20201;-79
2022/08/30 03:59:56;;;;;;;27.20;17.27;;;;;;;18.39;100.00;94849.22;5061882;28;20640;-78
2022/08/30 04:02:23;;;;;;;25.80;16.95;;;;;;;18.40;100.00;94848.97;5062448;28;20319;-79
2022/08/30 04:04:50;;;;;;;23.40;17.25;;;;;;;18.38;100.00;94852.94;5061561;28;20310;-79
2022/08/30 04:07:17;;;;;;;30.20;17.55;;;;;;;18.45;100.00;94845.56;5062091;28;20229;-79
2022/08/30 04:09:44;;;;;;;22.33;16.93;;;;;;;18.50;100.00;94858.75;5061695;28;20289;-79
2022/08/30 04:12:11;;;;;;;26.35;18.45;;;;;;;18.55;100.00;94856.13;5061726;28;20208;-79
2022/08/30 04:14:38;;;;;;;27.20;18.27;;;;;;;18.48;100.00;94859.03;5059523;28;20671;-79
2022/08/30 04:17:06;;;;;;;29.80;17.42;;;;;;;18.54;100.00;94863.25;5061178;28;20251;-80
2022/08/30 04:19:33;;;;;;;25.85;17.52;;;;;;;18.58;100.00;94868.78;5061652;28;20201;-78
2022/08/30 04:22:00;;;;;;;30.23;17.77;;;;;;;18.63;100.00;94861.69;5056979;28;20213;-80
2022/08/30 04:24:27;;;;;;;22.20;17.67;;;;;;;18.65;100.00;94871.94;5051256;28;20751;-79
2022/08/30 04:26:54;;;;;;;23.30;17.73;;;;;;;18.70;100.00;94864.81;5061206;28;21803;-79
2022/08/30 04:29:21;;;;;;;23.45;17.45;;;;;;;18.76;100.00;94870.88;5062911;28;20202;-79
2022/08/30 04:31:47;;;;;;;23.35;17.33;;;;;;;18.82;100.00;94875.09;5062279;28;20255;-78
2022/08/30 04:34:16;;;;;;;29.67;17.83;;;;;;;18.70;100.00;94871.94;5062237;28;20201;-78
2022/08/30 04:36:43;;;;;;;25.13;18.27;;;;;;;18.67;100.00;94880.38;5061438;28;20224;-78
2022/08/30 04:39:10;;;;;;;24.98;17.98;;;;;;;18.61;100.00;94874.28;5059364;28;20205;-79
2022/08/30 04:41:39;;;;;;;29.23;18.48;;;;;;;18.75;100.00;94879.06;5064636;28;20713;-79
2022/08/30 04:44:06;;;;;;;26.98;17.90;;;;;;;18.84;100.00;94882.75;5065076;28;20212;-79
2022/08/30 04:46:34;;;;;;;28.73;18.10;;;;;;;18.88;100.00;94883.78;5065091;28;20767;-78
2022/08/30 04:49:01;;;;;;;27.33;18.77;;;;;;;18.76;100.00;94884.03;5065782;28;20205;-80
2022/08/30 04:51:29;;;;;;;27.02;18.52;;;;;;;18.74;100.00;94875.63;5064489;28;20224;-78
2022/08/30 04:53:56;;;;;;;33.72;18.35;;;;;;;18.88;100.00;94884.59;5064710;28;20205;-79
2022/08/30 04:56:24;;;;;;;25.42;17.08;;;;;;;18.93;100.00;94886.44;5064845;28;20212;-78
2022/08/30 04:58:53;;;;;;;23.98;17.45;;;;;;;18.96;100.00;94897.22;5064157;28;20559;-78
2022/08/30 05:01:23;;;;;;;26.63;17.05;;;;;;;18.88;100.00;94889.06;5065491;28;20212;-79
2022/08/30 05:03:51;;;;;;;26.08;17.60;;;;;;;18.87;100.00;94898.03;5065692;28;20644;-79
2022/08/30 05:06:18;;;;;;;46.92;18.60;;;;;;;18.81;100.00;94896.44;5065491;28;20221;-78
2022/08/30 05:08:47;;;;;;;26.65;17.15;;;;;;;18.85;100.00;94900.13;5063987;28;20309;-79
2022/08/30 05:11:17;;;;;;;26.30;18.17;;;;;;;18.92;100.00;94904.09;5063451;28;20194;-80
2022/08/30 05:13:45;;;;;;;23.80;17.38;;;;;;;18.99;100.00;94904.59;5063678;28;20220;-79
2022/08/30 05:16:16;;;;;;;24.50;17.90;;;;;;;19.04;100.00;94912.53;5062403;28;20198;-79
2022/08/30 05:18:44;;;;;;;21.88;17.85;;;;;;;19.09;100.00;94907.25;5062840;28;20247;-79
2022/08/30 05:21:13;;;;;;;24.33;17.52;;;;;;;19.13;100.00;94912.78;5061889;28;20209;-79
2022/08/30 05:23:41;;;;;;;23.73;18.88;;;;;;;19.17;100.00;94911.97;5061818;28;20190;-79
2022/08/30 05:26:12;;;;;;;28.95;18.60;;;;;;;19.23;100.00;94912.75;5063805;28;20241;-78
2022/08/30 05:28:39;;;;;;;33.20;18.45;;;;;;;19.26;100.00;94914.88;5064396;28;20212;-78
2022/08/30 05:31:14;;;;;;;26.83;18.13;;;;;;;19.30;100.00;94912.50;5064545;28;20327;-78
2022/08/30 05:33:41;;;;;;;28.38;18.85;;;;;;;19.36;100.00;94908.81;5064046;28;20212;-78
2022/08/30 05:36:09;;;;;;;24.92;17.75;;;;;;;19.44;100.00;94914.38;5065328;28;20209;-78
2022/08/30 05:38:35;;;;;;;34.35;19.33;;;;;;;19.52;100.00;94910.38;5065115;28;20216;-78
2022/08/30 05:41:03;;;;;;;24.27;18.58;;;;;;;19.59;100.00;94910.91;5065200;28;20209;-78
2022/08/30 05:43:31;;;;;;;28.13;17.63;;;;;;;19.55;100.00;94915.91;5063629;28;20213;-78
2022/08/30 05:46:00;;;;;;;28.88;18.02;;;;;;;19.56;100.00;94917.50;5063552;28;20727;-79
2022/08/30 05:48:26;;;;;;;30.08;18.58;;;;;;;19.58;100.00;94912.75;5064019;28;20288;-78
2022/08/30 05:51:02;;;;;;;30.02;19.17;;;;;;;19.60;100.00;94910.63;5062476;28;20208;-78
2022/08/30 05:53:29;;;;;;;24.10;18.80;;;;;;;19.60;100.00;94915.91;5064961;28;20673;-79
2022/08/30 05:55:56;;;;;;;27.23;18.48;;;;;;;19.62;100.00;94913.00;5064941;28;20213;-79
2022/08/30 05:58:23;;;;;;;28.67;18.75;;;;;;;19.69;100.00;94911.66;5066091;28;20220;-78
2022/08/30 06:00:51;;;;;;;32.88;19.15;;;;;;;19.68;100.00;94917.22;5064415;28;20727;-79
2022/08/30 06:03:31;;;;;;;30.92;19.35;;;;;;;19.66;100.00;94909.56;5062982;28;20583;-78
2022/08/30 06:05:59;;;;;;;26.30;19.83;;;;;;;19.67;100.00;94913.78;5061123;28;20212;-78
2022/08/30 06:08:26;;;;;;;30.90;20.90;;;;;;;19.73;100.00;94909.28;5061819;28;21378;-78
2022/08/30 06:10:53;;;;;;;40.10;22.58;;;;;;;19.74;100.00;94911.66;5065378;28;20216;-79
2022/08/30 06:13:21;;;;;;;37.72;22.65;;;;;;;19.74;100.00;94908.22;5065335;28;20201;-78
2022/08/30 06:15:48;;;;;;;36.03;22.15;;;;;;;19.76;100.00;94914.03;5065797;28;20244;-79
2022/08/30 06:18:16;;;;;;;33.50;21.55;;;;;;;19.76;100.00;94919.31;5063973;28;20299;-79
2022/08/30 06:20:46;;;;;;;33.70;21.30;;;;;;;19.74;100.00;94924.03;5053299;28;20239;-79
2022/08/30 06:23:13;;;;;;;30.67;20.20;;;;;;;19.72;100.00;94924.31;5058866;28;20201;-78
2022/08/30 06:25:40;;;;;;;29.45;21.58;;;;;;;19.70;100.00;94926.44;5061211;28;20236;-78
2022/08/30 06:28:07;;;;;;;34.58;22.05;;;;;;;19.78;100.00;94930.38;5061520;28;20260;-78
2022/08/30 06:30:34;;;;;;;30.05;20.33;;;;;;;19.79;100.00;94932.75;5062617;28;20220;-80
2022/08/30 06:33:02;;;;;;;28.38;19.02;;;;;;;19.73;100.00;94930.38;5063943;28;20209;-77
2022/08/30 06:35:31;;;;;;;35.65;19.90;;;;;;;19.74;100.00;94935.38;5061871;28;20279;-78
2022/08/30 06:37:58;;;;;;;30.98;20.98;;;;;;;19.76;100.00;94941.22;5046888;28;20248;-78
2022/08/30 06:40:25;;;;;;;41.42;21.40;;;;;;;19.73;100.00;94935.66;5054956;28;20209;-77
2022/08/30 06:42:53;;;;;;;35.20;20.35;;;;;;;19.75;100.00;94936.19;5062020;28;20216;-77
2022/08/30 06:45:20;;;;;;;32.95;18.45;;;;;;;19.71;100.00;94935.16;5060852;28;20194;-79
2022/08/30 06:47:47;;;;;;;27.17;19.08;;;;;;;19.77;100.00;94942.75;5061078;28;20225;-78
2022/08/30 06:50:16;;;;;;;32.40;19.42;;;;;;;19.72;100.00;94955.19;5062380;28;21049;-78
2022/08/30 06:52:45;;;;;;;26.55;19.40;;;;;;;19.60;100.00;94955.47;5062045;28;20205;-78
2022/08/30 06:55:16;;;;;;;27.90;20.30;;;;;;;19.59;100.00;94948.63;5062747;28;20601;-78
2022/08/30 06:57:42;;;;;;;33.33;20.90;;;;;;;19.66;100.00;94957.03;5062454;28;20547;-78
2022/08/30 07:00:12;;;;;;;30.88;19.98;;;;;;;19.56;100.00;94951.78;5061498;28;20209;-78
2022/08/30 07:02:39;;;;;;;29.67;20.98;;;;;;;19.53;100.00;94956.81;5061582;28;20205;-77
2022/08/30 07:05:07;;;;;;;31.40;20.63;;;;;;;19.55;100.00;94949.41;5062920;28;20205;-77
2022/08/30 07:07:34;;;;;;;27.23;20.20;;;;;;;19.59;100.00;94953.09;5063257;28;20596;-78
2022/08/30 07:10:03;;;;;;;28.95;19.92;;;;;;;19.60;100.00;94955.47;5062836;28;20701;-78
2022/08/30 07:12:30;;;;;;;29.02;21.25;;;;;;;19.55;100.00;94952.84;5062462;28;20980;-77
2022/08/30 07:14:57;;;;;;;35.03;23.40;;;;;;;19.61;100.00;94956.25;5062484;28;20241;-77
2022/08/30 07:20:09;;;;;;;33.58;24.65;;;;;;;19.59;100.00;94955.75;5065551;28;20232;-88
2022/08/30 07:22:36;;;;;;;32.78;23.50;;;;;;;19.71;100.00;94969.44;5071392;28;20367;-85
2022/08/30 07:25:05;;;;;;;31.23;22.05;;;;;;;19.71;100.00;94962.28;5070474;28;20205;-73
2022/08/30 07:27:31;;;;;;;33.58;22.20;;;;;;;19.75;100.00;94960.72;5070052;28;20217;-76
2022/08/30 07:29:59;;;;;;;31.70;22.80;;;;;;;19.85;100.00;94962.56;5070657;28;20197;-75
2022/08/30 07:32:26;;;;;;;32.63;22.75;;;;;;;19.82;100.00;94963.09;5070535;28;20288;-75
2022/08/30 07:34:54;;;;;;;31.75;22.13;;;;;;;19.90;100.00;94957.25;5070974;28;20193;-75
2022/08/30 07:37:20;;;;;;;28.63;22.25;;;;;;;19.97;100.00;94954.34;5070082;28;20193;-74
2022/08/30 07:39:47;;;;;;;31.08;22.98;;;;;;;19.96;100.00;94960.66;5070037;28;20251;-75
2022/08/30 07:42:16;;;;;;;30.67;23.05;;;;;;;19.95;100.00;94956.44;5070003;28;20283;-74
2022/08/30 07:44:42;;;;;;;27.92;21.10;;;;;;;20.02;100.00;94956.97;5070121;28;20190;-76
2022/08/30 07:47:10;;;;;;;26.52;21.08;;;;;;;20.07;100.00;94952.44;5069621;28;21072;-75
2022/08/30 07:49:37;;;;;;;29.75;20.80;;;;;;;20.21;100.00;94950.81;5069657;28;20189;-76
2022/08/30 07:52:05;;;;;;;33.25;21.83;;;;;;;20.22;100.00;94960.31;5069909;28;20201;-75
2022/08/30 07:54:31;;;;;;;41.80;28.88;;;;;;;20.19;100.00;94970.63;5069990;28;20690;-76
2022/08/30 07:56:58;;;;;;;37.63;26.15;;;;;;;20.18;100.00;94971.66;5070203;28;20631;-75
2022/08/30 07:59:27;;;;;;;29.27;21.25;;;;;;;20.20;100.00;94964.28;5070087;28;20215;-74
2022/08/30 08:01:53;;;;;;;29.63;20.88;;;;;;;20.28;100.00;94969.03;5069825;28;20193;-75
2022/08/30 08:04:20;;;;;;;30.52;18.77;;;;;;;20.39;100.00;94975.84;5070061;28;20749;-75
2022/08/30 08:06:47;;;;;;;26.48;18.67;;;;;;;20.40;100.00;94974.00;5069638;28;20225;-74
2022/08/30 08:09:14;;;;;;;26.45;19.00;;;;;;;20.41;100.00;94976.34;5069999;28;20930;-75
2022/08/30 08:11:41;;;;;;;26.65;19.52;;;;;;;20.51;100.00;94973.69;5070022;28;20287;-74
2022/08/30 08:14:09;;;;;;;29.80;19.70;;;;;;;20.62;100.00;94969.13;5070951;28;20240;-75
2022/08/30 08:16:38;;;;;;;26.88;19.85;;;;;;;20.53;100.00;94973.41;5074484;28;20220;-76
2022/08/30 08:19:07;;;;;;;31.70;20.23;;;;;;;20.49;100.00;94964.47;5073645;28;20193;-76
2022/08/30 08:21:36;;;;;;;33.53;21.15;;;;;;;20.64;100.00;94967.00;5073203;28;20205;-76
2022/08/30 08:24:06;;;;;;;30.35;22.02;;;;;;;20.71;100.00;94981.50;5073953;28;20284;-74
2022/08/30 08:26:34;;;;;;;29.85;22.65;;;;;;;20.61;100.00;94978.91;5073760;28;20201;-75
2022/08/30 08:29:01;;;;;;;35.72;21.90;;;;;;;20.63;100.00;94974.16;5073769;28;20220;-75
2022/08/30 08:31:28;;;;;;;31.90;20.85;;;;;;;20.71;100.00;94976.22;5074027;28;20197;-76
2022/08/30 08:33:58;;;;;;;30.92;21.20;;;;;;;20.76;100.00;94967.47;5073631;28;20359;-76
2022/08/30 08:36:26;;;;;;;32.22;22.48;;;;;;;20.77;100.00;94966.41;5073779;28;20707;-75
2022/08/30 08:38:53;;;;;;;33.85;22.23;;;;;;;20.76;100.00;94964.81;5073744;28;20193;-75
2022/08/30 08:41:31;;;;;;;28.25;19.73;;;;;;;20.87;100.00;94968.97;5072954;28;20204;-75
2022/08/30 08:43:58;;;;;;;29.30;19.30;;;;;;;20.87;100.00;94971.63;5073797;28;20213;-76
2022/08/30 08:46:31;;;;;;;22.67;17.63;;;;;;;20.89;100.00;94966.88;5073986;28;20567;-76
2022/08/30 08:49:03;;;;;;;23.45;16.10;;;;;;;20.93;100.00;94968.69;5072902;28;20228;-76
2022/08/30 08:54:24;;;;;;;24.90;16.13;;;;;;;21.03;100.00;94964.41;5073449;28;20177;-76
2022/08/30 08:56:51;;;;;;;20.48;15.88;;;;;;;21.13;100.00;94967.78;5073277;28;20262;-76
2022/08/30 08:59:18;;;;;;;26.27;17.13;;;;;;;21.26;100.00;94966.38;5073291;28;20204;-75
2022/08/30 09:01:47;;;;;;;24.70;17.90;;;;;;;21.36;100.00;94961.00;5073265;28;20252;-75
2022/08/30 09:04:20;;;;;;;27.02;18.13;;;;;;;21.56;100.00;94979.34;5073519;28;20198;-75
2022/08/30 09:06:53;;;;;;;27.20;19.58;;;;;;;21.68;100.00;94981.59;5073530;28;20182;-75
2022/08/30 09:09:25;;;;;;;27.67;20.63;;;;;;;21.78;100.00;94976.22;5073483;28;20205;-75
2022/08/30 09:11:52;;;;;;;26.75;20.33;;;;;;;21.87;100.00;94979.84;5073346;28;20208;-75
2022/08/30 09:14:23;;;;;;;32.08;20.13;;;;;;;21.93;100.00;94976.13;5073261;28;20712;-75
2022/08/30 09:16:56;;;;;;;24.00;18.70;;;;;;;21.97;100.00;94972.63;5073640;28;20189;-75
2022/08/30 09:19:50;;;;;;;24.63;18.48;;;;;;;22.13;100.00;94975.09;5072701;28;20276;-76
2022/08/30 09:22:25;;;;;;;27.23;19.83;;;;;;;22.25;100.00;94968.31;5072224;28;20200;-74
2022/08/30 09:24:55;;;;;;;29.23;18.35;;;;;;;22.32;100.00;94966.13;5072941;28;20631;-75
2022/08/30 09:27:25;;;;;;;26.42;19.38;;;;;;;22.34;100.00;94971.94;5073246;28;20217;-76
2022/08/30 09:29:54;;;;;;;29.45;21.15;;;;;;;22.28;100.00;94964.34;5073327;28;20196;-76
2022/08/30 09:32:31;;;;;;;28.33;19.95;;;;;;;22.38;100.00;94978.25;5073116;28;20263;-75
2022/08/30 09:34:59;;;;;;;29.90;19.25;;;;;;;22.44;100.00;94979.78;5073278;28;20204;-76
2022/08/30 09:37:31;;;;;;;26.17;18.38;;;;;;;22.47;100.00;94973.91;5072553;28;20185;-76
2022/08/30 09:39:59;;;;;;;23.77;17.88;;;;;;;22.49;100.00;94969.09;5073472;28;20272;-75
2022/08/30 09:42:28;;;;;;;21.83;16.30;;;;;;;22.56;100.00;94968.75;5073315;28;20204;-76
2022/08/30 09:45:09;;;;;;;24.27;18.08;;;;;;;22.66;100.00;94968.66;5072639;28;20201;-76
2022/08/30 09:47:39;;;;;;;35.28;20.92;;;;;;;22.76;100.00;94965.09;5072616;28;20699;-76
2022/08/30 09:50:10;;;;;;;26.65;18.23;;;;;;;22.74;100.00;94957.41;5072682;28;20224;-76
2022/08/30 09:52:45;;;;;;;29.95;17.92;;;;;;;22.81;100.00;94962.34;5072452;28;20259;-75
2022/08/30 09:55:32;;;;;;;25.63;18.13;;;;;;;22.80;100.00;94950.19;5072555;28;20284;-76
2022/08/30 09:58:08;;;;;;;22.05;17.67;;;;;;;22.90;100.00;94963.28;5072502;28;20686;-76
2022/08/30 10:00:40;;;;;;;26.08;18.33;;;;;;;22.91;100.00;94959.56;5072978;28;20197;-76
2022/08/30 10:03:20;;;;;;;24.77;17.75;;;;;;;22.87;100.00;94959.34;5073034;28;20185;-76
2022/08/30 10:05:58;;;;;;;23.95;18.45;;;;;;;22.92;100.00;94958.47;5072563;28;20206;-76
2022/08/30 10:08:37;;;;;;;26.20;16.77;;;;;;;22.90;100.00;94950.03;5072500;28;20258;-76
2022/08/30 10:11:08;;;;;;;22.30;16.77;;;;;;;22.93;100.00;94944.16;5072499;28;20674;-77
2022/08/30 10:13:45;;;;;;;25.80;16.13;;;;;;;22.98;100.00;94950.16;5072169;28;20199;-80
2022/08/30 10:16:26;;;;;;;25.27;16.05;;;;;;;23.17;100.00;94950.94;5072257;28;20664;-80
2022/08/30 10:19:03;;;;;;;23.20;17.88;;;;;;;23.36;100.00;94942.94;5072574;28;20185;-79
2022/08/30 10:21:38;;;;;;;23.50;16.67;;;;;;;23.31;100.00;94939.59;5070820;28;20284;-79
2022/08/30 10:24:09;;;;;;;21.65;16.33;;;;;;;23.49;100.00;94939.56;5072149;28;20200;-79
2022/08/30 10:26:40;;;;;;;23.27;16.85;;;;;;;23.63;100.00;94942.28;5071812;28;20185;-79
2022/08/30 10:29:13;;;;;;;27.05;17.85;;;;;;;23.80;100.00;94933.72;5072488;28;20256;-79
2022/08/30 10:31:47;;;;;;;20.23;16.20;;;;;;;23.92;100.00;94934.03;5072049;28;20235;-80
2022/08/30 10:34:19;;;;;;;25.98;18.13;;;;;;;24.08;99.74;94927.34;5072265;28;20190;-79
2022/08/30 10:36:55;;;;;;;25.40;17.17;;;;;;;24.21;99.45;94940.66;5071465;28;20204;-79
2022/08/30 10:39:34;;;;;;;20.27;15.38;;;;;;;24.18;99.88;94924.53;5072155;28;20193;-80
2022/08/30 10:42:07;;;;;;;27.08;17.52;;;;;;;24.25;100.00;94925.69;5071792;28;20189;-78
2022/08/30 10:44:39;;;;;;;20.33;15.38;;;;;;;24.31;100.00;94921.06;5068981;28;20239;-78
2022/08/30 10:47:29;;;;;;;19.60;14.43;;;;;;;24.42;98.95;94924.28;5072085;28;20201;-80
2022/08/30 10:50:05;;;;;;;22.27;16.05;;;;;;;24.60;97.92;94926.84;5071562;28;20633;-80
2022/08/30 10:52:38;;;;;;;21.33;13.40;;;;;;;24.71;97.75;94922.06;5071435;28;20195;-79
2022/08/30 10:55:11;;;;;;;25.20;15.70;;;;;;;24.81;97.43;94921.91;5071592;28;20212;-79
2022/08/30 10:57:38;;;;;;;25.35;16.55;;;;;;;24.82;98.25;94920.78;5070950;28;20186;-80
2022/08/30 11:00:09;;;;;;;22.73;14.80;;;;;;;25.02;97.22;94922.97;5072010;28;20562;-79
2022/08/30 11:03:09;;;;;;;24.42;14.95;;;;;;;25.19;95.76;94914.38;5071448;28;20188;-79
2022/08/30 11:05:48;;;;;;;27.88;15.90;;;;;;;25.44;93.54;94912.94;5069339;28;20539;-79
2022/08/30 11:08:37;;;;;;;30.23;17.08;;;;;;;25.22;93.45;94908.44;5071041;28;20220;-79
2022/08/30 11:11:13;;;;;;;29.48;16.20;;;;;;;25.33;94.36;94907.88;5071442;28;20185;-79
2022/08/30 11:13:41;;;;;;;21.80;15.50;;;;;;;25.65;94.93;94916.72;5070666;28;20286;-80
2022/08/30 11:16:14;;;;;;;22.60;16.50;;;;;;;26.21;91.97;94897.34;5070665;28;20245;-79
2022/08/30 11:18:44;;;;;;;23.00;16.25;;;;;;;26.82;89.65;94905.16;5070994;28;20740;-79
2022/08/30 11:21:23;;;;;;;21.50;14.48;;;;;;;27.12;85.64;94902.66;5070212;28;20201;-80
2022/08/30 11:24:09;;;;;;;25.25;14.25;;;;;;;27.49;82.50;94897.44;5071414;28;20617;-79
2022/08/30 11:26:57;;;;;;;13.30;9.85;;;;;;;27.71;81.08;94888.41;5071394;28;20193;-80
2022/08/30 11:29:42;;;;;;;12.13;9.82;;;;;;;27.83;80.76;94887.75;5070875;28;20222;-79